createdAt,value
2018-07-09T06:47:09.229Z,3.80
2018-07-09T06:49:37.462Z,3.40
2018-07-09T06:52:05.753Z,3.90
2018-07-09T06:54:34.001Z,3.63
2018-07-09T06:57:02.223Z,3.40
2018-07-09T06:59:30.478Z,4.10
2018-07-09T07:01:58.705Z,4.20
2018-07-09T07:04:26.949Z,3.63
2018-07-09T07:06:55.185Z,3.67
2018-07-09T07:09:23.460Z,3.80
2018-07-09T07:11:51.697Z,3.43
2018-07-09T07:14:20.014Z,3.57
2018-07-09T07:16:48.213Z,2.97
2018-07-09T07:19:16.468Z,3.10
2018-07-09T07:21:44.699Z,2.83
2018-07-09T07:24:19.414Z,3.93
2018-07-09T07:26:47.650Z,2.67
2018-07-09T07:29:15.906Z,3.27
2018-07-09T07:31:44.159Z,3.43
2018-07-09T07:34:12.405Z,4.57
2018-07-09T07:36:40.653Z,4.07
2018-07-09T07:39:08.921Z,5.03
2018-07-09T07:41:37.158Z,3.97
2018-07-09T07:44:05.382Z,3.47
2018-07-09T07:46:33.638Z,3.67
2018-07-09T07:49:01.878Z,4.17
2018-07-09T07:51:30.124Z,3.87
2018-07-09T07:53:58.378Z,3.43
2018-07-09T07:56:26.628Z,3.87
2018-07-09T07:58:54.860Z,4.67
2018-07-09T08:01:23.126Z,3.90
2018-07-09T08:03:51.365Z,3.60
2018-07-09T08:06:19.609Z,4.37
2018-07-09T08:08:47.856Z,4.73
2018-07-09T08:11:16.115Z,3.93
2018-07-09T08:13:44.377Z,4.07
2018-07-09T08:16:12.611Z,4.03
2018-07-09T08:18:40.841Z,3.90
2018-07-09T08:21:09.094Z,3.80
2018-07-09T08:23:37.322Z,3.27
2018-07-09T08:26:05.585Z,3.60
2018-07-09T08:28:33.842Z,3.50
2018-07-09T08:31:02.235Z,4.03
2018-07-09T08:33:30.373Z,3.77
2018-07-09T08:35:58.614Z,4.67
2018-07-09T08:38:26.860Z,3.40
2018-07-09T08:40:55.102Z,4.23
2018-07-09T08:43:23.349Z,3.97
2018-07-09T08:45:51.589Z,4.13
2018-07-09T08:48:19.839Z,3.83
2018-07-09T08:50:48.064Z,3.87
2018-07-09T08:53:16.077Z,3.60
2018-07-09T08:55:44.320Z,4.20
2018-07-09T08:58:12.574Z,4.23
2018-07-09T09:00:40.805Z,4.10
2018-07-09T09:03:09.086Z,3.50
2018-07-09T09:05:37.331Z,4.37
2018-07-09T09:08:05.641Z,4.07
2018-07-09T09:10:33.902Z,4.00
2018-07-09T09:13:02.165Z,4.47
2018-07-09T09:15:30.406Z,4.17
2018-07-09T09:17:58.689Z,4.63
2018-07-09T09:20:26.922Z,4.40
2018-07-09T09:22:55.205Z,4.17
2018-07-09T09:25:23.445Z,4.57
2018-07-09T09:27:51.697Z,3.80
2018-07-09T09:30:19.941Z,3.60
2018-07-09T09:32:48.212Z,3.70
2018-07-09T09:35:16.486Z,4.17
2018-07-09T09:37:44.741Z,4.00
2018-07-09T09:40:12.952Z,4.10
2018-07-09T09:42:41.194Z,4.40
2018-07-09T09:45:09.420Z,3.67
2018-07-09T09:47:37.664Z,3.40
2018-07-09T09:50:05.906Z,3.73
2018-07-09T09:52:34.169Z,3.73
2018-07-09T09:55:02.453Z,3.10
2018-07-09T09:57:30.689Z,3.47
2018-07-09T09:59:58.923Z,3.50
2018-07-09T10:02:27.177Z,3.23
2018-07-09T10:04:55.418Z,3.70
2018-07-09T10:07:23.677Z,3.30
2018-07-09T10:09:51.942Z,3.20
2018-07-09T10:12:20.179Z,3.20
2018-07-09T10:14:48.404Z,3.53
2018-07-09T10:17:16.652Z,3.50
2018-07-09T10:19:44.885Z,3.43
2018-07-09T10:22:13.126Z,3.07
2018-07-09T10:24:41.374Z,3.10
2018-07-09T10:27:09.622Z,2.97
2018-07-09T10:29:37.978Z,2.97
2018-07-09T10:32:06.309Z,2.93
2018-07-09T10:34:34.560Z,3.20
2018-07-09T10:37:02.780Z,3.83
2018-07-09T10:39:31.033Z,3.30
2018-07-09T10:41:59.277Z,2.83
2018-07-09T10:44:27.527Z,2.83
2018-07-09T10:46:55.768Z,3.10
2018-07-09T10:49:24.027Z,3.07
2018-07-09T10:51:52.244Z,2.80
2018-07-09T10:54:20.530Z,2.90
2018-07-09T10:56:48.760Z,3.57
2018-07-09T10:59:17.002Z,3.20
2018-07-09T11:01:45.292Z,3.33
2018-07-09T11:04:13.525Z,2.97
2018-07-09T11:06:41.746Z,2.80
2018-07-09T11:09:10.013Z,3.30
2018-07-09T11:11:38.233Z,2.70
2018-07-09T11:14:06.483Z,2.97
2018-07-09T11:16:34.696Z,2.83
2018-07-09T11:19:02.950Z,2.50
2018-07-09T11:21:31.195Z,2.57
2018-07-09T11:23:59.442Z,2.47
2018-07-09T11:26:27.703Z,3.20
2018-07-09T11:28:55.946Z,3.20
2018-07-09T11:31:24.190Z,3.00
2018-07-09T11:33:52.441Z,2.67
2018-07-09T11:36:20.681Z,3.30
2018-07-09T11:38:48.952Z,2.97
2018-07-09T11:41:17.200Z,3.40
2018-07-09T11:43:45.461Z,3.00
2018-07-09T11:46:13.690Z,2.80
2018-07-09T11:48:41.965Z,2.80
2018-07-09T11:51:10.197Z,2.80
2018-07-09T11:53:38.454Z,2.87
2018-07-09T11:56:06.689Z,2.90
2018-07-09T11:58:34.966Z,3.17
2018-07-09T12:01:03.201Z,3.03
2018-07-09T12:03:31.450Z,3.00
2018-07-09T12:05:59.676Z,2.73
2018-07-09T12:08:27.946Z,3.00
2018-07-09T12:10:56.183Z,2.60
2018-07-09T12:13:24.430Z,2.73
2018-07-09T12:15:52.686Z,2.50
2018-07-09T12:18:20.927Z,2.70
2018-07-09T12:20:49.174Z,3.10
2018-07-09T12:23:17.404Z,2.37
2018-07-09T12:25:45.670Z,2.40
2018-07-09T12:28:13.928Z,2.63
2018-07-09T12:30:42.180Z,2.67
2018-07-09T12:33:10.444Z,2.50
2018-07-09T12:35:38.689Z,2.20
2018-07-09T12:38:06.927Z,2.63
2018-07-09T12:40:35.173Z,2.20
2018-07-09T12:43:03.413Z,2.03
2018-07-09T12:48:06.357Z,2.10
2018-07-09T12:50:34.622Z,2.07
2018-07-09T12:53:02.866Z,2.10
2018-07-09T12:55:31.118Z,2.00
2018-07-09T12:57:59.353Z,1.97
2018-07-09T13:00:27.601Z,1.37
2018-07-09T13:02:55.837Z,1.60
2018-07-09T13:05:24.086Z,2.17
2018-07-09T13:07:52.315Z,1.70
2018-07-09T13:10:20.575Z,1.60
2018-07-09T13:12:48.818Z,1.53
2018-07-09T13:15:17.060Z,1.40
2018-07-09T13:17:45.292Z,1.60
2018-07-09T13:20:13.542Z,1.40
2018-07-09T13:22:41.783Z,1.80
2018-07-09T13:25:10.037Z,1.40
2018-07-09T13:27:38.263Z,3.93
2018-07-09T13:30:06.554Z,1.87
2018-07-09T13:32:34.540Z,1.30
2018-07-09T13:35:02.797Z,1.80
2018-07-09T13:37:31.037Z,1.20
2018-07-09T13:39:59.297Z,1.50
2018-07-09T13:42:27.541Z,1.27
2018-07-09T13:44:55.798Z,1.40
2018-07-09T13:47:24.038Z,1.60
2018-07-09T13:49:52.293Z,1.03
2018-07-09T13:52:20.561Z,1.30
2018-07-09T13:54:48.802Z,1.23
2018-07-09T13:57:17.033Z,1.27
2018-07-09T13:59:45.285Z,1.77
2018-07-09T14:02:13.621Z,1.57
2018-07-09T14:04:41.883Z,1.67
2018-07-09T14:07:10.110Z,1.60
2018-07-09T14:09:38.406Z,1.53
2018-07-09T14:12:06.874Z,1.60
2018-07-09T14:14:35.105Z,1.77
2018-07-09T14:17:03.351Z,1.80
2018-07-09T14:20:44.832Z,1.80
2018-07-09T14:23:16.305Z,2.00
2018-07-09T14:25:44.556Z,2.00
2018-07-09T14:28:12.861Z,2.27
2018-07-09T14:30:41.200Z,2.70
2018-07-09T14:33:09.708Z,2.07
2018-07-09T14:35:37.952Z,1.90
2018-07-09T14:38:06.212Z,2.07
2018-07-09T14:40:34.495Z,2.13
2018-07-09T14:43:02.716Z,1.90
2018-07-09T14:45:30.941Z,1.97
2018-07-09T14:47:59.202Z,2.43
2018-07-09T14:50:28.227Z,2.07
2018-07-09T14:52:56.469Z,2.43
2018-07-09T14:55:24.709Z,2.87
2018-07-09T14:57:52.949Z,2.10
2018-07-09T15:00:21.173Z,1.90
2018-07-09T15:02:49.421Z,2.00
2018-07-09T15:05:17.649Z,2.40
2018-07-09T15:07:45.909Z,2.17
2018-07-09T15:10:14.174Z,1.93
2018-07-09T15:12:42.429Z,1.70
